Weather at Gimhae International Airport

Public forecast

Using degrees Celsius for public forecast. Weather courtesy of forecast.io.

Current aviation weather report (METAR) for Gimhae International Airport

2024/06/13 16:00 (retrieved 47 minutes ago)

RKPK 131600Z 36001KT 8000 NSC 19/17 Q1006

Aviation forecast (TAF) for Gimhae International Airport

2024/06/13 12:00 (retrieved 5 hours ago)

TAF RKPK 131100Z 1312/1418 36006KT 9999 SCT030 TN18/1321Z TX31/1406Z